createdAt,value
2022-09-01T00:00:01.400Z,14.71
2022-09-01T00:02:29.110Z,14.50
2022-09-01T00:04:59.067Z,14.57
2022-09-01T00:07:32.712Z,14.50
2022-09-01T00:09:59.829Z,14.51
2022-09-01T00:12:27.258Z,14.50
2022-09-01T00:14:54.772Z,14.53
2022-09-01T00:17:22.138Z,14.46
2022-09-01T00:19:49.632Z,14.49
2022-09-01T00:22:16.730Z,14.38
2022-09-01T00:24:43.653Z,14.44
2022-09-01T00:27:10.596Z,14.43
2022-09-01T00:29:37.394Z,14.50
2022-09-01T00:32:05.276Z,14.53
2022-09-01T00:34:31.869Z,14.41
2022-09-01T00:36:58.609Z,14.19
2022-09-01T00:39:25.390Z,14.16
2022-09-01T00:41:52.347Z,14.12
2022-09-01T00:44:24.791Z,14.10
2022-09-01T00:46:55.181Z,14.19
2022-09-01T00:49:39.571Z,14.10
2022-09-01T00:52:32.989Z,13.93
2022-09-01T00:55:04.503Z,13.87
2022-09-01T00:57:31.209Z,13.80
2022-09-01T01:00:07.118Z,13.89
2022-09-01T01:02:34.062Z,13.87
2022-09-01T01:05:00.880Z,13.86
2022-09-01T01:07:28.292Z,13.82
2022-09-01T01:09:55.542Z,13.72
2022-09-01T01:12:22.313Z,13.69
2022-09-01T01:14:52.789Z,13.70
2022-09-01T01:17:21.330Z,13.67
2022-09-01T01:20:15.332Z,13.63
2022-09-01T01:23:09.236Z,13.58
2022-09-01T01:25:45.196Z,13.65
2022-09-01T01:28:18.741Z,13.66
2022-09-01T01:30:56.320Z,13.57
2022-09-01T01:33:32.618Z,13.48
2022-09-01T01:36:00.315Z,13.47
2022-09-01T01:38:28.218Z,13.35
2022-09-01T01:40:56.508Z,13.10
2022-09-01T01:43:24.120Z,13.12
2022-09-01T01:45:53.804Z,12.80
2022-09-01T01:48:24.723Z,13.01
2022-09-01T01:50:53.165Z,13.00
2022-09-01T01:53:20.787Z,12.98
2022-09-01T01:55:50.827Z,13.05
2022-09-01T01:58:22.658Z,13.08
2022-09-01T02:00:51.775Z,13.07
2022-09-01T02:03:21.978Z,13.09
2022-09-01T02:05:50.972Z,12.94
2022-09-01T02:08:21.225Z,12.95
2022-09-01T02:10:50.512Z,12.92
2022-09-01T02:13:19.525Z,12.98
2022-09-01T02:15:53.981Z,12.93
2022-09-01T02:18:31.221Z,12.97
2022-09-01T02:20:59.130Z,13.00
2022-09-01T02:23:25.827Z,12.91
2022-09-01T02:26:15.684Z,12.76
2022-09-01T02:28:45.549Z,12.74
2022-09-01T02:31:12.575Z,12.84
2022-09-01T02:33:40.837Z,12.79
2022-09-01T02:36:14.057Z,12.75
2022-09-01T02:38:46.584Z,12.70
2022-09-01T02:41:14.524Z,12.61
2022-09-01T02:43:46.322Z,12.62
2022-09-01T02:46:15.477Z,12.67
2022-09-01T02:48:46.122Z,12.65
2022-09-01T02:51:15.587Z,12.59
2022-09-01T02:53:43.903Z,12.59
2022-09-01T02:56:15.499Z,12.59
2022-09-01T02:58:46.376Z,12.48
2022-09-01T03:01:19.901Z,12.54
2022-09-01T03:03:48.007Z,12.42
2022-09-01T03:06:18.111Z,12.47
2022-09-01T03:08:45.637Z,12.45
2022-09-01T03:11:13.217Z,12.39
2022-09-01T03:13:41.544Z,12.41
2022-09-01T03:16:09.058Z,12.32
2022-09-01T03:18:35.778Z,12.34
2022-09-01T03:21:03.045Z,12.39
2022-09-01T03:23:31.553Z,12.29
2022-09-01T03:25:58.588Z,12.25
2022-09-01T03:28:25.901Z,12.23
2022-09-01T03:30:54.831Z,12.26
2022-09-01T03:33:22.847Z,12.09
2022-09-01T03:35:50.029Z,12.17
2022-09-01T03:38:21.151Z,12.12
2022-09-01T03:40:49.618Z,12.07
2022-09-01T03:43:17.343Z,12.08
2022-09-01T03:45:45.115Z,12.08
2022-09-01T03:48:12.902Z,12.09
2022-09-01T03:50:44.213Z,12.08
2022-09-01T03:53:12.300Z,12.07
2022-09-01T03:55:39.579Z,12.11
2022-09-01T03:58:10.179Z,12.00
2022-09-01T04:00:41.347Z,11.94
2022-09-01T04:03:28.382Z,12.08
2022-09-01T04:05:55.409Z,11.88
2022-09-01T04:08:32.285Z,11.93
2022-09-01T04:11:14.112Z,11.82
2022-09-01T04:13:41.849Z,11.89
2022-09-01T04:16:37.762Z,11.86
2022-09-01T04:19:16.223Z,11.75
2022-09-01T04:21:47.451Z,11.81
2022-09-01T04:24:17.079Z,11.88
2022-09-01T04:26:48.350Z,11.87
2022-09-01T04:29:18.832Z,11.84
2022-09-01T04:31:52.344Z,11.86
2022-09-01T04:34:20.637Z,11.89
2022-09-01T04:36:49.988Z,11.96
2022-09-01T04:39:21.358Z,11.88
2022-09-01T04:41:49.575Z,11.87
2022-09-01T04:44:19.411Z,11.88
2022-09-01T04:46:48.013Z,11.73
2022-09-01T04:49:20.022Z,11.74
2022-09-01T04:51:53.429Z,11.89
2022-09-01T04:54:22.839Z,11.80
2022-09-01T04:56:52.702Z,11.96
2022-09-01T04:59:22.327Z,11.85
2022-09-01T05:01:51.065Z,11.77
2022-09-01T05:04:24.766Z,11.82
2022-09-01T05:06:56.214Z,11.91
2022-09-01T05:09:22.916Z,11.91
2022-09-01T05:11:50.288Z,11.97
2022-09-01T05:14:20.081Z,12.03
2022-09-01T05:16:46.931Z,12.10
2022-09-01T05:19:21.025Z,12.11
2022-09-01T05:21:48.138Z,12.17
2022-09-01T05:24:19.210Z,12.25
2022-09-01T05:26:47.628Z,12.28
2022-09-01T05:29:17.957Z,12.23
2022-09-01T05:31:49.450Z,12.43
2022-09-01T05:34:26.511Z,12.62
2022-09-01T05:36:57.424Z,12.80
2022-09-01T05:39:25.282Z,12.89
2022-09-01T05:41:54.045Z,12.91
2022-09-01T05:44:23.136Z,12.94
2022-09-01T05:46:50.697Z,13.07
2022-09-01T05:49:18.977Z,13.19
2022-09-01T05:51:50.563Z,13.17
2022-09-01T05:54:25.758Z,13.22
2022-09-01T05:56:54.079Z,13.37
2022-09-01T05:59:23.165Z,13.46
2022-09-01T06:01:50.945Z,13.51
2022-09-01T06:04:18.063Z,13.57
2022-09-01T06:07:07.067Z,13.51
2022-09-01T06:09:42.657Z,13.68
2022-09-01T06:12:18.657Z,13.74
2022-09-01T06:14:50.982Z,13.90
2022-09-01T06:17:19.741Z,13.93
2022-09-01T06:19:46.888Z,14.02
2022-09-01T06:22:13.559Z,14.21
2022-09-01T06:24:43.838Z,14.52
2022-09-01T06:27:12.581Z,14.80
2022-09-01T06:29:42.753Z,14.97
2022-09-01T06:32:10.646Z,14.96
2022-09-01T06:34:42.751Z,15.08
2022-09-01T06:37:11.327Z,15.23
2022-09-01T06:39:38.572Z,15.40
2022-09-01T06:42:06.328Z,15.51
2022-09-01T06:44:40.733Z,15.60
2022-09-01T06:47:09.273Z,15.73
2022-09-01T06:49:36.625Z,15.75
2022-09-01T06:52:04.344Z,15.62
2022-09-01T06:54:34.838Z,15.61
2022-09-01T06:59:54.361Z,15.75
2022-09-01T07:02:24.436Z,15.96
2022-09-01T07:04:54.790Z,15.93
2022-09-01T07:10:25.135Z,16.07
2022-09-01T07:13:10.873Z,16.33
2022-09-01T07:18:30.986Z,16.77
2022-09-01T07:21:35.795Z,16.67
2022-09-01T07:24:07.588Z,16.74
2022-09-01T07:26:34.019Z,16.45
2022-09-01T07:29:04.351Z,16.58
2022-09-01T07:34:41.957Z,16.76
2022-09-01T07:45:47.242Z,16.84
2022-09-01T07:51:35.022Z,17.10
2022-09-01T07:53:54.557Z,17.15
2022-09-01T07:56:23.782Z,17.27
2022-09-01T07:58:51.926Z,17.54
2022-09-01T08:01:24.404Z,17.67
2022-09-01T08:03:54.343Z,17.78
2022-09-01T08:06:22.792Z,17.84
2022-09-01T08:08:50.969Z,17.74
2022-09-01T08:14:18.097Z,18.01
2022-09-01T08:16:53.155Z,18.20
2022-09-01T08:19:20.528Z,18.27
2022-09-01T08:21:47.223Z,18.32
2022-09-01T08:24:14.733Z,18.24
2022-09-01T08:26:41.923Z,18.16
2022-09-01T08:29:09.065Z,18.16
2022-09-01T08:31:36.235Z,18.22
2022-09-01T08:34:05.700Z,18.26
2022-09-01T08:36:33.364Z,18.23
2022-09-01T08:39:00.179Z,18.46
2022-09-01T08:41:47.360Z,18.51
2022-09-01T08:44:50.527Z,18.76
2022-09-01T08:47:28.806Z,18.75
2022-09-01T08:50:00.308Z,18.77
2022-09-01T08:52:30.215Z,18.89
2022-09-01T08:55:01.011Z,18.99
2022-09-01T08:57:33.307Z,18.89
2022-09-01T09:00:00.812Z,18.91
2022-09-01T09:03:07.694Z,19.18
2022-09-01T09:05:58.163Z,19.40
2022-09-01T09:08:58.122Z,19.57
2022-09-01T09:12:22.825Z,19.84
2022-09-01T09:15:16.183Z,20.08
2022-09-01T09:17:56.005Z,20.10
2022-09-01T09:20:28.238Z,20.48
2022-09-01T09:22:55.965Z,20.50
2022-09-01T09:25:24.594Z,20.68
2022-09-01T09:28:01.116Z,20.90
2022-09-01T09:30:31.643Z,21.01
2022-09-01T09:35:57.676Z,21.21
2022-09-01T09:38:29.486Z,21.40
2022-09-01T09:41:20.390Z,21.46
2022-09-01T09:44:04.936Z,21.48
2022-09-01T09:46:46.252Z,21.35
2022-09-01T09:49:36.310Z,21.56
2022-09-01T09:52:16.371Z,21.46
2022-09-01T09:55:04.915Z,21.75
2022-09-01T09:57:32.880Z,21.71
2022-09-01T10:00:08.948Z,21.64
2022-09-01T10:02:37.339Z,21.76
2022-09-01T10:05:33.576Z,22.01
2022-09-01T10:08:02.303Z,22.09
2022-09-01T10:10:57.351Z,22.22
2022-09-01T10:13:26.950Z,22.24
2022-09-01T10:15:56.929Z,22.16
2022-09-01T10:18:29.490Z,22.25
2022-09-01T10:21:19.178Z,22.40
2022-09-01T10:23:47.060Z,22.69
2022-09-01T10:26:38.432Z,22.48
2022-09-01T10:29:50.630Z,22.44
2022-09-01T10:32:37.031Z,22.09
2022-09-01T10:35:06.943Z,21.67
2022-09-01T10:37:35.390Z,21.99
2022-09-01T10:40:36.182Z,21.89
2022-09-01T10:43:36.155Z,21.78
2022-09-01T10:46:50.404Z,21.77
2022-09-01T10:49:25.160Z,21.87
2022-09-01T10:51:56.938Z,21.87
2022-09-01T10:55:02.161Z,21.86
2022-09-01T10:57:46.311Z,21.60
2022-09-01T11:01:10.653Z,21.40
2022-09-01T11:03:56.462Z,21.84
2022-09-01T11:09:44.104Z,22.63
2022-09-01T11:12:29.857Z,22.38
2022-09-01T11:15:02.738Z,22.39
2022-09-01T11:17:38.626Z,22.29
2022-09-01T11:20:11.401Z,22.44
2022-09-01T11:22:57.919Z,22.53
2022-09-01T11:25:39.693Z,22.63
2022-09-01T11:28:18.010Z,22.66
2022-09-01T11:31:12.314Z,22.87
2022-09-01T11:34:10.049Z,23.20
2022-09-01T11:36:59.883Z,23.46
2022-09-01T11:39:48.269Z,23.45
2022-09-01T11:42:25.441Z,23.52
2022-09-01T11:45:21.434Z,23.53
2022-09-01T11:47:52.573Z,23.70
2022-09-01T11:50:24.026Z,23.67
2022-09-01T11:53:04.689Z,23.36
2022-09-01T11:55:43.642Z,23.33
2022-09-01T11:58:33.857Z,23.21
2022-09-01T12:01:20.455Z,23.25
2022-09-01T12:03:49.766Z,23.20
2022-09-01T12:06:27.568Z,23.43
2022-09-01T12:08:57.898Z,23.25
2022-09-01T12:11:31.397Z,23.29
2022-09-01T12:14:21.790Z,23.45
2022-09-01T12:16:59.313Z,23.63
2022-09-01T12:19:30.484Z,23.72
2022-09-01T12:22:01.555Z,23.74
2022-09-01T12:24:33.161Z,24.00
2022-09-01T12:27:01.289Z,23.90
2022-09-01T12:29:32.137Z,24.04
2022-09-01T12:32:00.821Z,23.96
2022-09-01T12:34:38.983Z,24.12
2022-09-01T12:37:25.008Z,24.30
2022-09-01T12:39:57.804Z,24.43
2022-09-01T12:42:30.029Z,24.41
2022-09-01T12:45:09.952Z,24.51
2022-09-01T12:47:50.638Z,24.64
2022-09-01T12:50:37.920Z,24.62
2022-09-01T12:53:15.631Z,24.69
2022-09-01T12:55:55.540Z,24.60
2022-09-01T12:58:27.553Z,24.51
2022-09-01T13:01:09.214Z,24.40
2022-09-01T13:03:44.239Z,24.29
2022-09-01T13:06:11.293Z,24.46
2022-09-01T13:08:38.553Z,24.60
2022-09-01T13:11:20.185Z,24.57
2022-09-01T13:13:47.490Z,24.68
2022-09-01T13:16:14.904Z,24.81
2022-09-01T13:21:32.449Z,25.13
2022-09-01T13:23:59.223Z,25.31
2022-09-01T13:26:26.495Z,25.22
2022-09-01T13:28:54.211Z,25.15
2022-09-01T13:31:29.518Z,25.07
2022-09-01T13:34:23.086Z,24.70
2022-09-01T13:36:48.603Z,24.12
2022-09-01T13:39:20.445Z,23.84
2022-09-01T13:41:47.944Z,23.79
2022-09-01T13:44:17.258Z,23.69
2022-09-01T13:47:00.996Z,23.61
2022-09-01T13:52:19.331Z,23.75
2022-09-01T13:54:46.240Z,23.71
2022-09-01T13:57:14.951Z,23.91
2022-09-01T13:59:42.661Z,23.84
2022-09-01T14:02:11.143Z,23.88
2022-09-01T14:04:38.332Z,23.77
2022-09-01T14:07:05.309Z,23.48
2022-09-01T14:09:32.019Z,23.64
2022-09-01T14:11:59.752Z,23.84
2022-09-01T14:14:26.893Z,23.92
2022-09-01T14:16:54.594Z,24.14
2022-09-01T14:19:21.355Z,24.19
2022-09-01T14:21:49.788Z,24.07
2022-09-01T14:24:20.099Z,24.06
2022-09-01T14:26:48.696Z,24.05
2022-09-01T14:29:15.476Z,24.11
2022-09-01T14:31:44.341Z,24.13
2022-09-01T14:34:12.234Z,24.13
2022-09-01T14:36:39.472Z,24.11
2022-09-01T14:39:06.917Z,24.30
2022-09-01T14:41:34.126Z,24.07
2022-09-01T14:44:03.543Z,23.96
2022-09-01T14:46:31.304Z,24.08
2022-09-01T14:48:58.357Z,23.90
2022-09-01T14:52:10.411Z,23.89
2022-09-01T14:54:16.257Z,23.82
2022-09-01T14:57:27.226Z,24.07
2022-09-01T14:59:30.112Z,24.18
2022-09-01T15:01:56.914Z,24.19
2022-09-01T15:04:23.740Z,24.02
2022-09-01T15:06:51.363Z,24.07
2022-09-01T15:09:19.275Z,24.13
2022-09-01T15:11:46.534Z,24.39
2022-09-01T15:14:14.154Z,24.43
2022-09-01T15:16:41.811Z,24.60
2022-09-01T15:19:14.150Z,24.52
2022-09-01T15:21:42.876Z,24.49
2022-09-01T15:24:11.111Z,24.60
2022-09-01T15:26:40.912Z,24.36
2022-09-01T15:29:10.092Z,24.21
2022-09-01T15:31:36.859Z,24.46
2022-09-01T15:34:04.261Z,24.34
2022-09-01T15:36:31.931Z,24.32
2022-09-01T15:38:59.182Z,24.08
2022-09-01T15:41:28.750Z,23.96
2022-09-01T15:43:56.479Z,23.93
2022-09-01T15:46:32.447Z,24.01
2022-09-01T15:49:00.962Z,23.94
2022-09-01T15:51:46.443Z,23.80
2022-09-01T15:54:15.937Z,23.87
2022-09-01T15:56:43.176Z,23.84
2022-09-01T15:59:10.645Z,24.00
2022-09-01T16:01:40.445Z,24.05
2022-09-01T16:04:09.297Z,23.99
2022-09-01T16:06:36.334Z,24.05
2022-09-01T16:09:05.127Z,24.03
2022-09-01T16:11:32.022Z,24.18
2022-09-01T16:13:59.165Z,23.94
2022-09-01T16:16:54.266Z,24.04
2022-09-01T16:19:34.178Z,23.70
2022-09-01T16:22:14.721Z,23.62
2022-09-01T16:24:46.341Z,23.36
2022-09-01T16:27:18.966Z,23.49
2022-09-01T16:30:11.936Z,23.42
2022-09-01T16:32:45.089Z,23.35
2022-09-01T16:35:12.028Z,23.28
2022-09-01T16:38:08.984Z,23.26
2022-09-01T16:40:51.223Z,22.90
2022-09-01T16:43:44.739Z,22.78
2022-09-01T16:46:30.603Z,22.71
2022-09-01T16:49:12.508Z,22.63
2022-09-01T16:51:53.238Z,22.70
2022-09-01T16:55:05.370Z,22.53
2022-09-01T16:58:00.796Z,22.51
2022-09-01T17:00:38.729Z,22.40
2022-09-01T17:03:19.143Z,22.31
2022-09-01T17:05:58.096Z,22.23
2022-09-01T17:08:31.136Z,22.16
2022-09-01T17:11:18.215Z,22.14
2022-09-01T17:13:49.956Z,22.10
2022-09-01T17:16:30.043Z,21.93
2022-09-01T17:19:02.198Z,21.79
2022-09-01T17:21:37.197Z,21.77
2022-09-01T17:24:30.361Z,21.75
2022-09-01T17:27:03.689Z,21.78
2022-09-01T17:29:35.840Z,21.53
2022-09-01T17:32:48.356Z,21.64
2022-09-01T17:35:28.376Z,21.49
2022-09-01T17:38:40.452Z,21.39
2022-09-01T17:41:39.374Z,21.37
2022-09-01T17:44:35.760Z,21.28
2022-09-01T17:47:27.184Z,21.40
2022-09-01T17:50:41.688Z,21.25
2022-09-01T17:53:24.205Z,21.13
2022-09-01T17:59:19.973Z,21.05
2022-09-01T18:02:13.154Z,21.01
2022-09-01T18:04:49.870Z,21.04
2022-09-01T18:08:01.431Z,20.80
2022-09-01T18:10:34.414Z,20.86
2022-09-01T18:13:05.356Z,20.78
2022-09-01T18:15:54.453Z,20.75
2022-09-01T18:18:46.060Z,20.56
2022-09-01T18:21:49.430Z,20.55
2022-09-01T18:24:21.192Z,20.51
2022-09-01T18:26:50.605Z,20.52
2022-09-01T18:29:17.831Z,20.41
2022-09-01T18:32:21.449Z,20.49
2022-09-01T18:35:01.605Z,20.32
2022-09-01T18:38:15.260Z,20.26
2022-09-01T18:40:56.399Z,20.16
2022-09-01T18:43:38.986Z,20.06
2022-09-01T18:46:53.651Z,19.94
2022-09-01T18:49:28.486Z,19.88
2022-09-01T18:52:06.813Z,19.76
2022-09-01T18:54:38.792Z,19.72
2022-09-01T18:57:08.022Z,19.59
2022-09-01T18:59:39.222Z,19.60
2022-09-01T19:02:47.603Z,19.52
2022-09-01T19:05:53.647Z,19.44
2022-09-01T19:08:49.070Z,19.46
2022-09-01T19:11:55.205Z,19.49
2022-09-01T19:14:43.598Z,19.19
2022-09-01T19:17:39.232Z,19.30
2022-09-01T19:20:19.069Z,19.21
2022-09-01T19:23:32.985Z,19.11
2022-09-01T19:26:07.125Z,19.12
2022-09-01T19:29:06.741Z,18.93
2022-09-01T19:31:39.353Z,18.91
2022-09-01T19:34:27.192Z,18.86
2022-09-01T19:36:57.287Z,18.77
2022-09-01T19:39:28.124Z,18.68
2022-09-01T19:42:13.708Z,18.67
2022-09-01T19:51:45.181Z,18.50
2022-09-01T19:54:21.955Z,18.56
2022-09-01T19:57:23.094Z,18.51
2022-09-01T20:00:04.256Z,18.42
2022-09-01T20:02:35.542Z,18.37
2022-09-01T20:05:22.569Z,18.29
2022-09-01T20:07:56.602Z,18.34
2022-09-01T20:10:39.096Z,18.26
2022-09-01T20:13:34.911Z,18.20
2022-09-01T20:16:32.586Z,18.28
2022-09-01T20:19:04.261Z,18.00
2022-09-01T20:21:31.722Z,18.11
2022-09-01T20:24:05.757Z,18.18
2022-09-01T20:26:41.714Z,17.96
2022-09-01T20:29:43.313Z,17.86
2022-09-01T20:32:20.574Z,17.97
2022-09-01T20:34:54.622Z,17.73
2022-09-01T20:37:27.189Z,17.89
2022-09-01T20:40:17.417Z,18.00
2022-09-01T20:43:22.671Z,17.97
2022-09-01T20:45:49.774Z,17.93
2022-09-01T20:48:22.026Z,17.80
2022-09-01T20:51:09.352Z,17.71
2022-09-01T20:53:54.960Z,17.80
2022-09-01T20:56:30.074Z,17.61
2022-09-01T20:59:21.169Z,17.43
2022-09-01T21:02:33.297Z,17.21
2022-09-01T21:06:04.451Z,17.34
2022-09-01T21:08:43.794Z,17.33
2022-09-01T21:11:22.840Z,17.02
2022-09-01T21:14:23.601Z,16.89
2022-09-01T21:17:40.325Z,16.73
2022-09-01T21:20:48.581Z,16.71
2022-09-01T21:23:16.715Z,16.68
2022-09-01T21:25:44.438Z,16.74
2022-09-01T21:28:18.701Z,16.98
2022-09-01T21:30:52.153Z,16.94
2022-09-01T21:33:18.988Z,16.91
2022-09-01T21:35:45.926Z,16.90
2022-09-01T21:38:12.556Z,17.06
2022-09-01T21:40:39.449Z,16.93
2022-09-01T21:43:15.337Z,16.73
2022-09-01T21:45:42.244Z,16.72
2022-09-01T21:48:09.158Z,16.89
2022-09-01T21:50:36.094Z,16.91
2022-09-01T21:53:02.753Z,16.96
2022-09-01T21:55:30.117Z,16.96
2022-09-01T21:57:56.771Z,16.97
2022-09-01T22:00:27.150Z,17.03
2022-09-01T22:02:54.950Z,16.95
2022-09-01T22:05:22.211Z,16.67
2022-09-01T22:07:48.887Z,16.57
2022-09-01T22:10:18.128Z,16.70
2022-09-01T22:12:46.402Z,16.78
2022-09-01T22:15:16.786Z,16.73
2022-09-01T22:17:43.564Z,16.79
2022-09-01T22:20:12.337Z,16.64
2022-09-01T22:22:39.715Z,16.44
2022-09-01T22:25:08.935Z,16.36
2022-09-01T22:27:35.715Z,16.51
2022-09-01T22:30:04.605Z,16.57
2022-09-01T22:32:33.973Z,16.45
2022-09-01T22:35:03.339Z,16.50
2022-09-01T22:37:30.044Z,16.39
2022-09-01T22:39:56.673Z,16.47
2022-09-01T22:42:23.377Z,16.20
2022-09-01T22:44:50.021Z,16.31
2022-09-01T22:47:16.712Z,16.36
2022-09-01T22:49:44.037Z,16.37
2022-09-01T22:52:10.614Z,16.43
2022-09-01T22:54:38.448Z,16.37
2022-09-01T22:57:05.259Z,16.35
2022-09-01T22:59:31.980Z,16.25
2022-09-01T23:02:01.372Z,16.14
2022-09-01T23:04:28.277Z,16.19
2022-09-01T23:06:54.937Z,16.23
2022-09-01T23:09:21.849Z,16.12
2022-09-01T23:11:48.738Z,16.04
2022-09-01T23:14:15.555Z,15.99
2022-09-01T23:16:42.394Z,15.89
2022-09-01T23:19:09.169Z,15.92
2022-09-01T23:21:37.742Z,15.96
2022-09-01T23:24:05.152Z,15.85
2022-09-01T23:26:32.238Z,15.85
2022-09-01T23:28:59.616Z,15.79
2022-09-01T23:31:28.990Z,15.72
2022-09-01T23:33:56.200Z,15.78
2022-09-01T23:36:25.152Z,15.92
2022-09-01T23:38:52.671Z,16.01
2022-09-01T23:41:23.535Z,15.85
2022-09-01T23:43:51.860Z,15.72
2022-09-01T23:46:27.639Z,15.45
2022-09-01T23:48:54.767Z,15.52
2022-09-01T23:51:23.084Z,15.61
2022-09-01T23:53:50.093Z,15.60
2022-09-01T23:56:19.556Z,15.28
2022-09-01T23:58:46.783Z,15.40
